| time (UTC) | temp C | wind direction | speed KPH | gust KPH | rain 1hr cm | rain 24hr cm | rain mn cm | humidity % | barometer mb |
| 20260504090115 | 7 | 236 | 0.0 | 0.0 | 0.00 | 0.15 | 0.00 | 87 | 1003.3 |
| 20260504081629 | 7 | 236 | 0.0 | 0.0 | 0.00 | 0.15 | 0.00 | 84 | 1003.3 |
| 20260504081137 | 7 | 236 | 0.0 | 0.0 | 0.00 | 0.15 | 0.00 | 84 | 1003.2 |
| 20260504080618 | 7 | 236 | 0.0 | 0.0 | 0.00 | 0.15 | 0.00 | 84 | 1003.3 |
| 20260504080126 | 8 | 236 | 0.0 | 0.0 | 0.00 | 0.15 | 0.00 | 84 | 1003.3 |
| 20260504070121 | 9 | 236 | 0.0 | 0.0 | 0.00 | 0.15 | 0.00 | 78 | 1003.8 |
| 20260504060125 | 11 | 236 | 0.0 | 0.0 | 0.00 | 0.15 | 0.00 | 72 | 1004.8 |
| 20260504050641 | 13 | 236 | 0.0 | 0.0 | 0.00 | 0.15 | 0.00 | 66 | 1004.8 |
| 20260504050128 | 13 | 236 | 0.0 | 4.8 | 0.00 | 0.15 | 0.00 | 66 | 1004.9 |
| 20260504045632 | 13 | 236 | 1.6 | 4.8 | 0.00 | 0.15 | 0.15 | 67 | 1004.9 |
| 20260504045115 | 13 | 235 | 0.0 | 12.9 | 0.00 | 0.15 | 0.15 | 68 | 1004.9 |
| 20260504044625 | 13 | 235 | 0.0 | 12.9 | 0.00 | 0.15 | 0.15 | 67 | 1005.0 |
| 20260504044130 | 13 | 237 | 0.0 | 0.0 | 0.00 | 0.15 | 0.15 | 67 | 1004.9 |
| 20260504043641 | 13 | 237 | 0.0 | 0.0 | 0.00 | 0.15 | 0.15 | 66 | 1004.8 |
| 20260504043125 | 13 | 237 | 0.0 | 0.0 | 0.00 | 0.15 | 0.15 | 64 | 1004.8 |
| 20260504042638 | 13 | 237 | 0.0 | 0.0 | 0.00 | 0.15 | 0.15 | 64 | 1004.8 |
| 20260504042123 | 14 | 237 | 0.0 | 0.0 | 0.00 | 0.15 | 0.15 | 63 | 1004.9 |
| 20260504041627 | 14 | 237 | 0.0 | 0.0 | 0.00 | 0.15 | 0.15 | 62 | 1004.9 |
| 20260504041112 | 15 | 237 | 0.0 | 0.0 | 0.00 | 0.15 | 0.15 | 61 | 1004.9 |
| 20260504040623 | 15 | 237 | 0.0 | 1.6 | 0.00 | 0.15 | 0.15 | 61 | 1004.8 |
| 20260504040128 | 15 | 237 | 0.0 | 3.2 | 0.00 | 0.15 | 0.15 | 60 | 1004.8 |
| 20260504035614 | 15 | 237 | 0.0 | 6.4 | 0.00 | 0.15 | 0.15 | 60 | 1004.8 |
| 20260504035125 | 15 | 237 | 0.0 | 6.4 | 0.00 | 0.15 | 0.15 | 59 | 1004.8 |
| 20260504034631 | 15 | 236 | 0.0 | 3.2 | 0.00 | 0.15 | 0.15 | 59 | 1004.8 |
| 20260504034117 | 15 | 236 | 0.0 | 4.8 | 0.00 | 0.15 | 0.15 | 59 | 1004.8 |
| 20260504033647 | 15 | 236 | 1.6 | 4.8 | 0.00 | 0.15 | 0.15 | 58 | 1004.9 |
| 20260504033137 | 16 | 236 | 0.0 | 4.8 | 0.00 | 0.15 | 0.15 | 58 | 1004.9 |
| 20260504032621 | 16 | 236 | 0.0 | 8.0 | 0.00 | 0.15 | 0.15 | 58 | 1004.9 |
| 20260504032126 | 16 | 236 | 1.6 | 8.0 | 0.00 | 0.15 | 0.15 | 57 | 1004.9 |
| 20260504031618 | 16 | 237 | 0.0 | 4.8 | 0.00 | 0.15 | 0.15 | 57 | 1005.0 |
| 20260504031123 | 16 | 237 | 0.0 | 4.8 | 0.00 | 0.15 | 0.15 | 57 | 1005.0 |
| 20260504030636 | 16 | 237 | 1.6 | 4.8 | 0.00 | 0.15 | 0.15 | 57 | 1004.9 |
| 20260504030119 | 16 | 237 | 1.6 | 8.0 | 0.00 | 0.15 | 0.15 | 56 | 1004.8 |
| 20260504025645 | 16 | 238 | 1.6 | 8.0 | 0.00 | 0.15 | 0.15 | 56 | 1004.8 |
| 20260504025113 | 17 | 231 | 1.6 | 8.0 | 0.00 | 0.15 | 0.15 | 56 | 1004.9 |
| 20260504024617 | 17 | 230 | 1.6 | 8.0 | 0.00 | 0.15 | 0.15 | 55 | 1004.8 |
| 20260504024122 | 17 | 210 | 1.6 | 6.4 | 0.00 | 0.15 | 0.15 | 55 | 1004.8 |
| 20260504023613 | 17 | 210 | 1.6 | 6.4 | 0.00 | 0.15 | 0.15 | 54 | 1004.6 |
| 20260504023118 | 17 | 217 | 3.2 | 8.0 | 0.00 | 0.15 | 0.15 | 53 | 1004.6 |
| 20260504022624 | 17 | 231 | 1.6 | 9.7 | 0.00 | 0.15 | 0.15 | 53 | 1004.6 |
| 20260504022115 | 17 | 190 | 3.2 | 12.9 | 0.00 | 0.15 | 0.15 | 53 | 1004.5 |
| 20260504021621 | 17 | 190 | 4.8 | 12.9 | 0.00 | 0.15 | 0.15 | 53 | 1004.4 |
| 20260504021126 | 18 | 191 | 3.2 | 12.9 | 0.00 | 0.15 | 0.15 | 53 | 1004.4 |
| 20260504020618 | 18 | 207 | 4.8 | 12.9 | 0.00 | 0.15 | 0.15 | 52 | 1004.4 |
| 20260504020123 | 18 | 221 | 4.8 | 11.3 | 0.00 | 0.15 | 0.15 | 52 | 1004.4 |
| 20260504015636 | 18 | 188 | 4.8 | 12.9 | 0.00 | 0.15 | 0.15 | 52 | 1004.2 |
| 20260504015119 | 18 | 230 | 4.8 | 11.3 | 0.00 | 0.15 | 0.15 | 52 | 1004.2 |
| 20260504014624 | 18 | 175 | 4.8 | 11.3 | 0.00 | 0.15 | 0.15 | 52 | 1004.2 |
| 20260504014136 | 18 | 205 | 4.8 | 9.7 | 0.00 | 0.15 | 0.15 | 52 | 1004.2 |
| 20260504013619 | 18 | 200 | 4.8 | 11.3 | 0.00 | 0.15 | 0.15 | 52 | 1004.2 |
| 20260504013125 | 18 | 226 | 4.8 | 11.3 | 0.00 | 0.15 | 0.15 | 52 | 1004.1 |
| 20260504012636 | 18 | 252 | 3.2 | 11.3 | 0.00 | 0.15 | 0.15 | 52 | 1003.9 |
| 20260504012121 | 18 | 209 | 3.2 | 9.7 | 0.00 | 0.15 | 0.15 | 51 | 1004.0 |
| 20260504011646 | 18 | 200 | 3.2 | 8.0 | 0.00 | 0.15 | 0.15 | 51 | 1004.0 |
| 20260504011136 | 18 | 200 | 3.2 | 8.0 | 0.00 | 0.15 | 0.15 | 51 | 1004.0 |
| 20260504010647 | 19 | 200 | 3.2 | 9.7 | 0.00 | 0.15 | 0.15 | 51 | 1004.1 |
| 20260504010200 | 19 | 197 | 3.2 | 9.7 | 0.00 | 0.15 | 0.15 | 50 | 1004.0 |
| 20260504005621 | 19 | 202 | 3.2 | 9.7 | 0.00 | 0.15 | 0.15 | 50 | 1004.1 |
| 20260504005125 | 19 | 209 | 1.6 | 11.3 | 0.00 | 0.15 | 0.15 | 50 | 1003.9 |
| 20260504004634 | 20 | 214 | 3.2 | 12.9 | 0.00 | 0.15 | 0.15 | 49 | 1004.0 |
| 20260504004114 | 20 | 192 | 4.8 | 12.9 | 0.00 | 0.15 | 0.15 | 49 | 1004.3 |
| 20260504003617 | 20 | 207 | 4.8 | 12.9 | 0.00 | 0.15 | 0.15 | 48 | 1004.1 |
| 20260504003127 | 20 | 188 | 4.8 | 11.3 | 0.00 | 0.15 | 0.15 | 48 | 1004.1 |
| 20260504002631 | 20 | 194 | 4.8 | 11.3 | 0.00 | 0.15 | 0.15 | 48 | 1004.2 |
| 20260504002116 | 20 | 244 | 4.8 | 12.9 | 0.00 | 0.15 | 0.15 | 47 | 1004.2 |
| 20260504001628 | 20 | 202 | 4.8 | 11.3 | 0.00 | 0.15 | 0.15 | 46 | 1004.2 |
| 20260504001118 | 21 | 246 | 4.8 | 12.9 | 0.00 | 0.15 | 0.15 | 46 | 1004.1 |
| 20260504000621 | 21 | 213 | 4.8 | 14.5 | 0.00 | 0.15 | 0.15 | 45 | 1004.1 |
| 20260504000133 | 21 | 242 | 3.2 | 17.7 | 0.00 | 0.15 | 0.15 | 45 | 1004.1 |
| 20260503235618 | 21 | 203 | 6.4 | 17.7 | 0.00 | 0.15 | 0.15 | 43 | 1004.2 |
| 20260503235123 | 21 | 242 | 4.8 | 12.9 | 0.00 | 0.15 | 0.15 | 44 | 1004.2 |
| 20260503234634 | 21 | 239 | 6.4 | 12.9 | 0.00 | 0.15 | 0.15 | 43 | 1004.1 |
| 20260503234118 | 21 | 231 | 4.8 | 14.5 | 0.00 | 0.15 | 0.15 | 43 | 1004.2 |
| 20260503233623 | 21 | 200 | 4.8 | 16.1 | 0.00 | 0.15 | 0.15 | 43 | 1004.2 |
| 20260503233135 | 21 | 257 | 6.4 | 16.1 | 0.00 | 0.15 | 0.15 | 43 | 1004.1 |
| 20260503232621 | 21 | 187 | 6.4 | 17.7 | 0.00 | 0.15 | 0.15 | 42 | 1004.1 |
| 20260503232152 | 21 | 235 | 4.8 | 12.9 | 0.00 | 0.15 | 0.15 | 42 | 1004.0 |
| 20260503231616 | 21 | 216 | 6.4 | 16.1 | 0.00 | 0.15 | 0.15 | 41 | 1004.1 |
| 20260503231121 | 22 | 192 | 8.0 | 16.1 | 0.00 | 0.15 | 0.15 | 41 | 1004.0 |
| 20260503230632 | 22 | 215 | 9.7 | 17.7 | 0.00 | 0.15 | 0.15 | 41 | 1004.2 |
| 20260503230137 | 22 | 198 | 9.7 | 17.7 | 0.00 | 0.15 | 0.15 | 41 | 1004.2 |
| 20260503225629 | 22 | 191 | 8.0 | 16.1 | 0.00 | 0.15 | 0.15 | 41 | 1004.2 |
| 20260503225114 | 22 | 178 | 6.4 | 16.1 | 0.00 | 0.15 | 0.15 | 42 | 1004.2 |
| 20260503224619 | 22 | 234 | 6.4 | 14.5 | 0.00 | 0.15 | 0.15 | 41 | 1004.2 |
| 20260503224131 | 22 | 173 | 4.8 | 14.5 | 0.00 | 0.15 | 0.15 | 41 | 1004.3 |
| 20260503223614 | 22 | 179 | 4.8 | 17.7 | 0.00 | 0.15 | 0.15 | 43 | 1004.3 |
| 20260503223118 | 22 | 200 | 8.0 | 20.9 | 0.00 | 0.15 | 0.15 | 41 | 1004.4 |
| 20260503222629 | 22 | 234 | 9.7 | 20.9 | 0.00 | 0.15 | 0.15 | 42 | 1004.5 |
| 20260503222115 | 22 | 239 | 9.7 | 20.9 | 0.00 | 0.15 | 0.15 | 42 | 1004.5 |
| 20260503221619 | 22 | 209 | 8.0 | 24.1 | 0.00 | 0.15 | 0.15 | 41 | 1004.6 |
| 20260503221131 | 22 | 246 | 11.3 | 24.1 | 0.00 | 0.15 | 0.15 | 42 | 1004.5 |
| 20260503220615 | 22 | 233 | 11.3 | 29.0 | 0.00 | 0.15 | 0.15 | 41 | 1004.5 |
| 20260503220120 | 22 | 250 | 9.7 | 29.0 | 0.00 | 0.15 | 0.15 | 42 | 1004.6 |
| 20260503215631 | 22 | 208 | 11.3 | 29.0 | 0.00 | 0.15 | 0.15 | 42 | 1004.6 |
| 20260503215116 | 22 | 237 | 9.7 | 29.0 | 0.00 | 0.15 | 0.15 | 41 | 1004.6 |
| 20260503214647 | 22 | 222 | 14.5 | 27.4 | 0.00 | 0.15 | 0.15 | 41 | 1004.6 |
| 20260503214131 | 22 | 254 | 6.4 | 20.9 | 0.00 | 0.15 | 0.15 | 42 | 1004.6 |
| 20260503213616 | 22 | 238 | 6.4 | 17.7 | 0.00 | 0.15 | 0.15 | 42 | 1004.7 |
| 20260503213123 | 22 | 237 | 6.4 | 17.7 | 0.00 | 0.15 | 0.15 | 43 | 1004.8 |
| 20260503212624 | 22 | 267 | 8.0 | 20.9 | 0.00 | 0.15 | 0.15 | 44 | 1004.7 |
| 20260503212133 | 21 | 180 | 11.3 | 20.9 | 0.00 | 0.15 | 0.15 | 43 | 1004.7 |
| 20260503211617 | 21 | 219 | 11.3 | 27.4 | 0.00 | 0.15 | 0.15 | 43 | 1004.7 |
| 20260503211148 | 21 | 222 | 14.5 | 27.4 | 0.00 | 0.15 | 0.15 | 43 | 1004.8 |
| 20260503210629 | 21 | 207 | 9.7 | 29.0 | 0.00 | 0.15 | 0.15 | 44 | 1004.8 |
| 20260503210119 | 21 | 239 | 9.7 | 22.5 | 0.00 | 0.15 | 0.15 | 45 | 1004.9 |
| 20260503205645 | 21 | 207 | 11.3 | 17.7 | 0.00 | 0.15 | 0.15 | 44 | 1005.2 |
| 20260503205136 | 21 | 242 | 11.3 | 22.5 | 0.00 | 0.15 | 0.15 | 42 | 1005.2 |
| 20260503204639 | 21 | 173 | 8.0 | 30.6 | 0.00 | 0.15 | 0.15 | 43 | 1005.1 |
| 20260503204127 | 21 | 238 | 9.7 | 30.6 | 0.00 | 0.15 | 0.15 | 43 | 1005.2 |
| 20260503203628 | 21 | 250 | 3.2 | 19.3 | 0.00 | 0.15 | 0.15 | 44 | 1005.3 |
| 20260503203136 | 21 | 187 | 4.8 | 25.7 | 0.00 | 0.15 | 0.15 | 43 | 1005.6 |
| 20260503202619 | 21 | 215 | 9.7 | 25.7 | 0.00 | 0.15 | 0.15 | 42 | 1005.6 |
| 20260503202121 | 21 | 266 | 8.0 | 27.4 | 0.00 | 0.15 | 0.15 | 44 | 1005.8 |
| 20260503201631 | 21 | 216 | 9.7 | 27.4 | 0.00 | 0.15 | 0.15 | 43 | 1005.9 |
| 20260503201113 | 21 | 150 | 11.3 | 32.2 | 0.00 | 0.15 | 0.15 | 44 | 1005.8 |
| 20260503200614 | 21 | 220 | 11.3 | 27.4 | 0.00 | 0.15 | 0.15 | 43 | 1006.0 |
| 20260503200125 | 20 | 225 | 8.0 | 29.0 | 0.00 | 0.15 | 0.15 | 45 | 1006.0 |
| 20260503195627 | 20 | 212 | 12.9 | 29.0 | 0.00 | 0.15 | 0.15 | 43 | 1006.1 |
| 20260503195113 | 20 | 232 | 12.9 | 32.2 | 0.00 | 0.15 | 0.15 | 43 | 1006.1 |
| 20260503194624 | 20 | 233 | 11.3 | 32.2 | 0.00 | 0.15 | 0.15 | 43 | 1006.1 |
| 20260503194129 | 21 | 229 | 14.5 | 27.4 | 0.00 | 0.15 | 0.15 | 43 | 1006.1 |
| 20260503193613 | 21 | 205 | 8.0 | 20.9 | 0.00 | 0.15 | 0.15 | 45 | 1006.2 |
| 20260503193144 | 20 | 213 | 8.0 | 25.7 | 0.00 | 0.15 | 0.15 | 43 | 1006.3 |
| 20260503192634 | 21 | 241 | 12.9 | 25.7 | 0.00 | 0.15 | 0.15 | 44 | 1006.3 |
| 20260503192116 | 20 | 225 | 9.7 | 27.4 | 0.00 | 0.15 | 0.15 | 47 | 1006.4 |
| 20260503191621 | 20 | 167 | 12.9 | 29.0 | 0.00 | 0.15 | 0.15 | 45 | 1006.4 |
| 20260503191130 | 20 | 226 | 16.1 | 32.2 | 0.00 | 0.15 | 0.15 | 44 | 1006.6 |
| 20260503190616 | 20 | 227 | 14.5 | 33.8 | 0.00 | 0.15 | 0.15 | 44 | 1006.5 |
| 20260503190118 | 20 | 210 | 17.7 | 33.8 | 0.00 | 0.15 | 0.15 | 45 | 1006.5 |
| 20260503185627 | 20 | 215 | 9.7 | 29.0 | 0.00 | 0.15 | 0.15 | 45 | 1006.6 |
| 20260503185113 | 20 | 228 | 14.5 | 29.0 | 0.00 | 0.15 | 0.15 | 44 | 1006.7 |
| 20260503184616 | 19 | 251 | 14.5 | 25.7 | 0.00 | 0.15 | 0.15 | 47 | 1006.8 |
| 20260503184123 | 19 | 207 | 14.5 | 30.6 | 0.00 | 0.15 | 0.15 | 46 | 1007.0 |
| 20260503183626 | 19 | 206 | 16.1 | 29.0 | 0.00 | 0.15 | 0.15 | 46 | 1007.3 |
| 20260503183114 | 18 | 202 | 14.5 | 29.0 | 0.00 | 0.15 | 0.15 | 47 | 1007.3 |
| 20260503182615 | 18 | 246 | 12.9 | 32.2 | 0.00 | 0.15 | 0.15 | 47 | 1007.3 |
| 20260503182124 | 18 | 208 | 14.5 | 33.8 | 0.00 | 0.15 | 0.15 | 46 | 1007.5 |
| 20260503181626 | 18 | 221 | 14.5 | 33.8 | 0.00 | 0.15 | 0.15 | 45 | 1007.6 |
| 20260503181129 | 18 | 178 | 16.1 | 33.8 | 0.00 | 0.15 | 0.15 | 45 | 1007.8 |
| 20260503180618 | 18 | 207 | 17.7 | 32.2 | 0.00 | 0.15 | 0.15 | 45 | 1007.8 |
| 20260503180121 | 18 | 240 | 19.3 | 38.6 | 0.00 | 0.15 | 0.15 | 44 | 1007.9 |
| 20260503175627 | 18 | 226 | 17.7 | 38.6 | 0.00 | 0.15 | 0.15 | 45 | 1007.9 |
| 20260503175116 | 18 | 221 | 12.9 | 30.6 | 0.00 | 0.15 | 0.15 | 46 | 1008.0 |
| 20260503174640 | 18 | 259 | 16.1 | 29.0 | 0.00 | 0.15 | 0.15 | 46 | 1008.0 |
| 20260503174147 | 17 | 190 | 16.1 | 24.1 | 0.00 | 0.15 | 0.15 | 46 | 1008.0 |
| 20260503173636 | 17 | 213 | 19.3 | 32.2 | 0.00 | 0.15 | 0.15 | 46 | 1008.1 |
| 20260503173138 | 17 | 167 | 16.1 | 33.8 | 0.00 | 0.15 | 0.15 | 47 | 1008.0 |
| 20260503172644 | 17 | 98 | 17.7 | 33.8 | 0.00 | 0.15 | 0.15 | 47 | 1008.1 |
| 20260503172126 | 17 | 218 | 14.5 | 29.0 | 0.00 | 0.15 | 0.15 | 48 | 1008.2 |
| 20260503171634 | 17 | 200 | 16.1 | 29.0 | 0.00 | 0.15 | 0.15 | 48 | 1008.3 |
| 20260503171141 | 17 | 208 | 16.1 | 27.4 | 0.00 | 0.15 | 0.15 | 49 | 1008.3 |
| 20260503170620 | 16 | 221 | 11.3 | 27.4 | 0.00 | 0.15 | 0.15 | 50 | 1008.3 |
| 20260503170149 | 16 | 209 | 12.9 | 27.4 | 0.00 | 0.15 | 0.15 | 52 | 1008.5 |
| 20260503160116 | 11 | 208 | 4.8 | 12.9 | 0.00 | 0.15 | 0.15 | 69 | 1010.2 |
| 20260503150629 | 8 | 173 | 4.8 | 11.3 | 0.03 | 0.15 | 0.15 | 78 | 1011.1 |
| 20260503150137 | 8 | 186 | 3.2 | 9.7 | 0.03 | 0.15 | 0.15 | 79 | 1011.4 |
| 20260503140115 | 7 | 188 | 0.0 | 8.0 | 0.03 | 0.13 | 0.13 | 84 | 1012.4 |
| 20260503131126 | 8 | 205 | 3.2 | 9.7 | 0.05 | 0.10 | 0.10 | 81 | 1013.0 |
| 20260503130612 | 8 | 205 | 3.2 | 9.7 | 0.08 | 0.10 | 0.10 | 81 | 1013.0 |
| 20260503130145 | 8 | 205 | 0.0 | 8.0 | 0.08 | 0.10 | 0.10 | 82 | 1013.1 |
| 20260503120117 | 8 | 249 | 8.0 | 14.5 | 0.00 | 0.00 | 0.00 | 70 | 1014.2 |
| 20260503110625 | 8 | 195 | 6.4 | 12.9 | 0.00 | 0.00 | 0.00 | 63 | 1012.3 |
| 20260503110128 | 8 | 190 | 6.4 | 12.9 | 0.00 | 0.00 | 0.00 | 63 | 1012.3 |
| 20260503100148 | 8 | 192 | 1.6 | 11.3 | 0.00 | 0.00 | 0.00 | 64 | 1013.1 |